sensor_id;sensor_type;location;lat;lon;timestamp;P1;durP1;ratioP1;P2;durP2;ratioP2
44446;SDS011;30152;52.066;5.358;2023-07-02T06:48:08;19.73;;;6.60;;
44446;SDS011;30152;52.066;5.358;2023-07-02T06:50:33;26.90;;;7.35;;
44446;SDS011;30152;52.066;5.358;2023-07-02T06:52:59;23.25;;;7.05;;
44446;SDS011;30152;52.066;5.358;2023-07-02T06:55:24;19.08;;;6.95;;
44446;SDS011;30152;52.066;5.358;2023-07-02T06:57:50;18.75;;;6.47;;
44446;SDS011;30152;52.066;5.358;2023-07-02T07:00:16;23.55;;;6.03;;
44446;SDS011;30152;52.066;5.358;2023-07-02T07:02:41;23.33;;;6.35;;
44446;SDS011;30152;52.066;5.358;2023-07-02T07:05:07;18.05;;;6.47;;
44446;SDS011;30152;52.066;5.358;2023-07-02T07:07:33;26.77;;;7.32;;
44446;SDS011;30152;52.066;5.358;2023-07-02T07:09:59;22.20;;;6.93;;
44446;SDS011;30152;52.066;5.358;2023-07-02T07:12:24;29.25;;;7.70;;
44446;SDS011;30152;52.066;5.358;2023-07-02T07:14:50;27.40;;;7.22;;
44446;SDS011;30152;52.066;5.358;2023-07-02T07:17:15;21.55;;;6.15;;
44446;SDS011;30152;52.066;5.358;2023-07-02T07:19:41;18.00;;;6.05;;
44446;SDS011;30152;52.066;5.358;2023-07-02T07:22:07;18.90;;;5.88;;
44446;SDS011;30152;52.066;5.358;2023-07-02T07:24:33;20.30;;;5.93;;
44446;SDS011;30152;52.066;5.358;2023-07-02T07:26:58;24.00;;;6.60;;
44446;SDS011;30152;52.066;5.358;2023-07-02T07:29:24;21.20;;;5.43;;
44446;SDS011;30152;52.066;5.358;2023-07-02T07:31:49;21.38;;;6.75;;
44446;SDS011;30152;52.066;5.358;2023-07-02T07:34:15;20.42;;;6.22;;
44446;SDS011;30152;52.066;5.358;2023-07-02T07:36:40;23.75;;;5.90;;
44446;SDS011;30152;52.066;5.358;2023-07-02T07:39:06;23.35;;;6.80;;
44446;SDS011;30152;52.066;5.358;2023-07-02T07:41:31;18.65;;;6.10;;
44446;SDS011;30152;52.066;5.358;2023-07-02T07:43:57;14.75;;;4.60;;
44446;SDS011;30152;52.066;5.358;2023-07-02T07:46:23;18.35;;;5.63;;
44446;SDS011;30152;52.066;5.358;2023-07-02T07:48:48;16.45;;;5.70;;
44446;SDS011;30152;52.066;5.358;2023-07-02T07:51:14;14.80;;;5.40;;
44446;SDS011;30152;52.066;5.358;2023-07-02T07:53:39;16.73;;;5.43;;
44446;SDS011;30152;52.066;5.358;2023-07-02T07:56:05;20.15;;;5.38;;
44446;SDS011;30152;52.066;5.358;2023-07-02T07:58:31;18.77;;;5.63;;
44446;SDS011;30152;52.066;5.358;2023-07-02T08:00:59;13.10;;;5.22;;
44446;SDS011;30152;52.066;5.358;2023-07-02T08:03:25;16.58;;;5.38;;
44446;SDS011;30152;52.066;5.358;2023-07-02T08:05:51;13.80;;;5.07;;
44446;SDS011;30152;52.066;5.358;2023-07-02T08:08:16;16.45;;;5.32;;
44446;SDS011;30152;52.066;5.358;2023-07-02T08:10:42;21.50;;;5.38;;
44446;SDS011;30152;52.066;5.358;2023-07-02T08:13:08;17.92;;;4.90;;
44446;SDS011;30152;52.066;5.358;2023-07-02T08:15:34;19.30;;;5.65;;
44446;SDS011;30152;52.066;5.358;2023-07-02T08:18:00;17.85;;;4.95;;
44446;SDS011;30152;52.066;5.358;2023-07-02T08:20:25;18.90;;;5.90;;
44446;SDS011;30152;52.066;5.358;2023-07-02T08:22:51;16.35;;;4.97;;
44446;SDS011;30152;52.066;5.358;2023-07-02T08:25:17;17.42;;;6.68;;
44446;SDS011;30152;52.066;5.358;2023-07-02T08:27:43;21.67;;;5.30;;
44446;SDS011;30152;52.066;5.358;2023-07-02T08:30:09;15.82;;;4.90;;
44446;SDS011;30152;52.066;5.358;2023-07-02T08:32:35;16.00;;;4.78;;
44446;SDS011;30152;52.066;5.358;2023-07-02T08:35:00;16.30;;;5.25;;
44446;SDS011;30152;52.066;5.358;2023-07-02T08:37:26;18.15;;;5.35;;
44446;SDS011;30152;52.066;5.358;2023-07-02T08:39:52;13.98;;;5.28;;
44446;SDS011;30152;52.066;5.358;2023-07-02T08:42:18;14.25;;;4.60;;
44446;SDS011;30152;52.066;5.358;2023-07-02T08:44:47;19.58;;;5.43;;
44446;SDS011;30152;52.066;5.358;2023-07-02T08:47:13;17.02;;;5.05;;
44446;SDS011;30152;52.066;5.358;2023-07-02T08:49:40;15.25;;;4.50;;
44446;SDS011;30152;52.066;5.358;2023-07-02T08:52:06;16.73;;;4.40;;
44446;SDS011;30152;52.066;5.358;2023-07-02T08:54:32;14.32;;;4.93;;
44446;SDS011;30152;52.066;5.358;2023-07-02T08:56:58;12.10;;;4.53;;
44446;SDS011;30152;52.066;5.358;2023-07-02T08:59:25;14.82;;;4.85;;
44446;SDS011;30152;52.066;5.358;2023-07-02T09:01:51;16.88;;;4.97;;
44446;SDS011;30152;52.066;5.358;2023-07-02T09:07:09;12.57;;;4.40;;
44446;SDS011;30152;52.066;5.358;2023-07-02T09:09:48;15.73;;;4.13;;
44446;SDS011;30152;52.066;5.358;2023-07-02T09:12:30;14.52;;;4.05;;
44446;SDS011;30152;52.066;5.358;2023-07-02T09:14:57;12.75;;;4.22;;
44446;SDS011;30152;52.066;5.358;2023-07-02T09:17:27;11.23;;;4.10;;
44446;SDS011;30152;52.066;5.358;2023-07-02T09:19:54;15.40;;;4.05;;
44446;SDS011;30152;52.066;5.358;2023-07-02T09:22:20;12.48;;;4.15;;
44446;SDS011;30152;52.066;5.358;2023-07-02T09:24:52;14.75;;;4.20;;
44446;SDS011;30152;52.066;5.358;2023-07-02T09:27:19;14.85;;;3.78;;
44446;SDS011;30152;52.066;5.358;2023-07-02T09:29:49;9.75;;;2.97;;
44446;SDS011;30152;52.066;5.358;2023-07-02T09:32:23;12.98;;;3.60;;
44446;SDS011;30152;52.066;5.358;2023-07-02T09:34:51;11.75;;;3.65;;
44446;SDS011;30152;52.066;5.358;2023-07-02T09:37:18;13.60;;;3.47;;
44446;SDS011;30152;52.066;5.358;2023-07-02T09:39:44;12.68;;;4.00;;
44446;SDS011;30152;52.066;5.358;2023-07-02T09:42:15;15.10;;;3.47;;
44446;SDS011;30152;52.066;5.358;2023-07-02T09:44:41;11.07;;;3.83;;
44446;SDS011;30152;52.066;5.358;2023-07-02T09:47:08;10.65;;;3.58;;
44446;SDS011;30152;52.066;5.358;2023-07-02T09:49:40;11.70;;;3.10;;
44446;SDS011;30152;52.066;5.358;2023-07-02T09:52:08;11.38;;;3.00;;
44446;SDS011;30152;52.066;5.358;2023-07-02T09:54:36;8.55;;;2.58;;
44446;SDS011;30152;52.066;5.358;2023-07-02T09:57:02;9.55;;;2.58;;
44446;SDS011;30152;52.066;5.358;2023-07-02T09:59:28;10.77;;;3.25;;
44446;SDS011;30152;52.066;5.358;2023-07-02T10:01:54;10.93;;;3.25;;
44446;SDS011;30152;52.066;5.358;2023-07-02T10:04:21;8.98;;;3.08;;
44446;SDS011;30152;52.066;5.358;2023-07-02T10:06:51;7.95;;;2.97;;
44446;SDS011;30152;52.066;5.358;2023-07-02T10:09:18;11.35;;;3.50;;
44446;SDS011;30152;52.066;5.358;2023-07-02T10:11:44;12.18;;;2.95;;
44446;SDS011;30152;52.066;5.358;2023-07-02T10:14:10;8.55;;;3.08;;
44446;SDS011;30152;52.066;5.358;2023-07-02T10:16:48;11.68;;;3.22;;
44446;SDS011;30152;52.066;5.358;2023-07-02T10:19:17;10.40;;;3.20;;
44446;SDS011;30152;52.066;5.358;2023-07-02T10:21:43;12.15;;;3.28;;
44446;SDS011;30152;52.066;5.358;2023-07-02T10:26:37;9.18;;;2.50;;
44446;SDS011;30152;52.066;5.358;2023-07-02T10:29:02;8.70;;;2.85;;
44446;SDS011;30152;52.066;5.358;2023-07-02T10:31:28;8.43;;;3.10;;
44446;SDS011;30152;52.066;5.358;2023-07-02T10:33:55;10.60;;;2.90;;
44446;SDS011;30152;52.066;5.358;2023-07-02T10:36:21;9.32;;;3.00;;
44446;SDS011;30152;52.066;5.358;2023-07-02T10:38:48;7.25;;;2.90;;
44446;SDS011;30152;52.066;5.358;2023-07-02T10:41:24;9.18;;;2.72;;
44446;SDS011;30152;52.066;5.358;2023-07-02T10:43:51;7.75;;;2.78;;
44446;SDS011;30152;52.066;5.358;2023-07-02T10:46:18;12.35;;;2.97;;
44446;SDS011;30152;52.066;5.358;2023-07-02T10:48:54;11.00;;;2.47;;
44446;SDS011;30152;52.066;5.358;2023-07-02T10:51:20;8.23;;;2.70;;
44446;SDS011;30152;52.066;5.358;2023-07-02T10:53:46;7.55;;;2.78;;
44446;SDS011;30152;52.066;5.358;2023-07-02T10:56:23;9.23;;;2.92;;
44446;SDS011;30152;52.066;5.358;2023-07-02T10:58:49;10.32;;;3.45;;
44446;SDS011;30152;52.066;5.358;2023-07-02T11:01:50;13.18;;;3.67;;
44446;SDS011;30152;52.066;5.358;2023-07-02T11:04:08;9.65;;;3.33;;
44446;SDS011;30152;52.066;5.358;2023-07-02T11:06:34;11.88;;;3.75;;
44446;SDS011;30152;52.066;5.358;2023-07-02T11:09:00;12.05;;;3.53;;
44446;SDS011;30152;52.066;5.358;2023-07-02T11:11:26;12.70;;;3.72;;
44446;SDS011;30152;52.066;5.358;2023-07-02T11:13:52;9.63;;;3.35;;
44446;SDS011;30152;52.066;5.358;2023-07-02T11:16:23;8.77;;;3.17;;
44446;SDS011;30152;52.066;5.358;2023-07-02T11:19:06;11.77;;;3.08;;
44446;SDS011;30152;52.066;5.358;2023-07-02T11:21:33;11.52;;;3.80;;
44446;SDS011;30152;52.066;5.358;2023-07-02T11:24:03;9.75;;;3.72;;
44446;SDS011;30152;52.066;5.358;2023-07-02T11:26:39;8.63;;;3.13;;
44446;SDS011;30152;52.066;5.358;2023-07-02T11:29:11;16.17;;;3.92;;
44446;SDS011;30152;52.066;5.358;2023-07-02T11:31:37;8.23;;;2.90;;
44446;SDS011;30152;52.066;5.358;2023-07-02T11:34:17;7.30;;;2.83;;
44446;SDS011;30152;52.066;5.358;2023-07-02T11:36:45;12.70;;;3.38;;
44446;SDS011;30152;52.066;5.358;2023-07-02T11:39:11;11.15;;;3.60;;
44446;SDS011;30152;52.066;5.358;2023-07-02T11:41:40;7.90;;;3.20;;
44446;SDS011;30152;52.066;5.358;2023-07-02T11:44:07;12.45;;;3.47;;
44446;SDS011;30152;52.066;5.358;2023-07-02T11:46:33;9.23;;;3.60;;
44446;SDS011;30152;52.066;5.358;2023-07-02T11:49:02;9.50;;;3.30;;
44446;SDS011;30152;52.066;5.358;2023-07-02T11:51:35;13.80;;;3.85;;
44446;SDS011;30152;52.066;5.358;2023-07-02T11:54:02;13.57;;;3.25;;
44446;SDS011;30152;52.066;5.358;2023-07-02T11:56:28;11.73;;;3.25;;
44446;SDS011;30152;52.066;5.358;2023-07-02T11:58:54;8.45;;;3.05;;
44446;SDS011;30152;52.066;5.358;2023-07-02T12:01:21;8.93;;;2.72;;
44446;SDS011;30152;52.066;5.358;2023-07-02T12:03:46;7.88;;;3.35;;
44446;SDS011;30152;52.066;5.358;2023-07-02T12:06:13;10.70;;;3.50;;
44446;SDS011;30152;52.066;5.358;2023-07-02T12:08:38;9.18;;;3.17;;
44446;SDS011;30152;52.066;5.358;2023-07-02T12:11:04;10.65;;;3.47;;
44446;SDS011;30152;52.066;5.358;2023-07-02T12:13:30;11.10;;;3.40;;
44446;SDS011;30152;52.066;5.358;2023-07-02T12:15:55;11.85;;;3.75;;
44446;SDS011;30152;52.066;5.358;2023-07-02T12:18:20;9.60;;;3.55;;
44446;SDS011;30152;52.066;5.358;2023-07-02T12:20:46;13.05;;;3.72;;
44446;SDS011;30152;52.066;5.358;2023-07-02T12:23:12;11.07;;;3.47;;
44446;SDS011;30152;52.066;5.358;2023-07-02T12:25:38;10.48;;;3.85;;
44446;SDS011;30152;52.066;5.358;2023-07-02T12:28:04;12.57;;;3.78;;
44446;SDS011;30152;52.066;5.358;2023-07-02T12:30:30;8.80;;;3.45;;
44446;SDS011;30152;52.066;5.358;2023-07-02T12:32:56;9.38;;;3.33;;
44446;SDS011;30152;52.066;5.358;2023-07-02T12:35:21;10.52;;;3.45;;
44446;SDS011;30152;52.066;5.358;2023-07-02T12:37:48;9.48;;;3.28;;
44446;SDS011;30152;52.066;5.358;2023-07-02T12:40:15;11.43;;;3.50;;
44446;SDS011;30152;52.066;5.358;2023-07-02T12:42:41;10.25;;;3.67;;
44446;SDS011;30152;52.066;5.358;2023-07-02T12:45:08;10.80;;;3.15;;
44446;SDS011;30152;52.066;5.358;2023-07-02T12:47:34;13.57;;;3.67;;
44446;SDS011;30152;52.066;5.358;2023-07-02T12:50:00;11.07;;;3.50;;
44446;SDS011;30152;52.066;5.358;2023-07-02T12:52:26;10.38;;;3.47;;
44446;SDS011;30152;52.066;5.358;2023-07-02T12:54:52;10.50;;;3.53;;
44446;SDS011;30152;52.066;5.358;2023-07-02T12:57:17;11.70;;;3.97;;
44446;SDS011;30152;52.066;5.358;2023-07-02T12:59:43;9.43;;;3.88;;
44446;SDS011;30152;52.066;5.358;2023-07-02T13:02:09;11.82;;;4.22;;
44446;SDS011;30152;52.066;5.358;2023-07-02T13:04:35;9.80;;;4.25;;
44446;SDS011;30152;52.066;5.358;2023-07-02T13:07:01;11.77;;;3.60;;
44446;SDS011;30152;52.066;5.358;2023-07-02T13:09:27;9.93;;;3.72;;
44446;SDS011;30152;52.066;5.358;2023-07-02T13:11:52;10.65;;;4.13;;
44446;SDS011;30152;52.066;5.358;2023-07-02T13:14:18;11.30;;;3.80;;
44446;SDS011;30152;52.066;5.358;2023-07-02T13:16:44;9.90;;;3.55;;
44446;SDS011;30152;52.066;5.358;2023-07-02T13:19:10;9.35;;;3.70;;
44446;SDS011;30152;52.066;5.358;2023-07-02T13:21:36;8.35;;;3.35;;
44446;SDS011;30152;52.066;5.358;2023-07-02T13:24:01;16.30;;;4.38;;
44446;SDS011;30152;52.066;5.358;2023-07-02T13:26:27;8.82;;;3.88;;
44446;SDS011;30152;52.066;5.358;2023-07-02T13:28:53;10.88;;;3.28;;
44446;SDS011;30152;52.066;5.358;2023-07-02T13:31:19;12.80;;;3.97;;
44446;SDS011;30152;52.066;5.358;2023-07-02T13:33:45;11.15;;;3.70;;
44446;SDS011;30152;52.066;5.358;2023-07-02T13:36:11;11.02;;;4.35;;
44446;SDS011;30152;52.066;5.358;2023-07-02T13:38:37;14.00;;;4.43;;
44446;SDS011;30152;52.066;5.358;2023-07-02T13:41:02;10.80;;;3.67;;
44446;SDS011;30152;52.066;5.358;2023-07-02T13:43:28;14.52;;;5.57;;
44446;SDS011;30152;52.066;5.358;2023-07-02T13:45:54;12.50;;;3.85;;
44446;SDS011;30152;52.066;5.358;2023-07-02T13:48:21;14.35;;;4.10;;
44446;SDS011;30152;52.066;5.358;2023-07-02T13:50:46;17.17;;;4.40;;
44446;SDS011;30152;52.066;5.358;2023-07-02T13:53:12;14.27;;;3.83;;
44446;SDS011;30152;52.066;5.358;2023-07-02T13:55:37;10.68;;;3.70;;
44446;SDS011;30152;52.066;5.358;2023-07-02T13:58:03;15.05;;;4.28;;
44446;SDS011;30152;52.066;5.358;2023-07-02T14:00:29;11.23;;;3.67;;
44446;SDS011;30152;52.066;5.358;2023-07-02T14:02:55;15.50;;;4.47;;
44446;SDS011;30152;52.066;5.358;2023-07-02T14:05:20;14.43;;;4.32;;
44446;SDS011;30152;52.066;5.358;2023-07-02T14:07:47;10.20;;;3.90;;
44446;SDS011;30152;52.066;5.358;2023-07-02T14:10:13;16.55;;;4.40;;
44446;SDS011;30152;52.066;5.358;2023-07-02T14:12:39;15.70;;;4.40;;
44446;SDS011;30152;52.066;5.358;2023-07-02T14:15:06;13.57;;;3.95;;
44446;SDS011;30152;52.066;5.358;2023-07-02T14:17:32;11.77;;;3.40;;
44446;SDS011;30152;52.066;5.358;2023-07-02T14:19:58;10.98;;;4.40;;
44446;SDS011;30152;52.066;5.358;2023-07-02T14:22:23;9.05;;;4.10;;
44446;SDS011;30152;52.066;5.358;2023-07-02T14:24:49;11.85;;;3.97;;
44446;SDS011;30152;52.066;5.358;2023-07-02T14:27:15;13.57;;;5.05;;
44446;SDS011;30152;52.066;5.358;2023-07-02T14:29:40;12.32;;;4.43;;
44446;SDS011;30152;52.066;5.358;2023-07-02T14:32:06;13.98;;;4.80;;
44446;SDS011;30152;52.066;5.358;2023-07-02T14:34:32;11.90;;;4.93;;
44446;SDS011;30152;52.066;5.358;2023-07-02T14:36:58;15.25;;;5.55;;
44446;SDS011;30152;52.066;5.358;2023-07-02T14:39:24;10.20;;;4.78;;
44446;SDS011;30152;52.066;5.358;2023-07-02T14:41:50;10.27;;;4.07;;
44446;SDS011;30152;52.066;5.358;2023-07-02T14:44:16;12.40;;;4.57;;
44446;SDS011;30152;52.066;5.358;2023-07-02T14:46:42;13.85;;;4.63;;
44446;SDS011;30152;52.066;5.358;2023-07-02T14:49:08;11.07;;;4.50;;
44446;SDS011;30152;52.066;5.358;2023-07-02T14:51:34;11.82;;;4.00;;
44446;SDS011;30152;52.066;5.358;2023-07-02T14:53:59;13.43;;;5.18;;
44446;SDS011;30152;52.066;5.358;2023-07-02T14:56:31;15.85;;;4.70;;
44446;SDS011;30152;52.066;5.358;2023-07-02T14:58:57;11.63;;;4.13;;
44446;SDS011;30152;52.066;5.358;2023-07-02T15:14:04;10.00;;;4.10;;
44446;SDS011;30152;52.066;5.358;2023-07-02T15:16:31;12.50;;;4.15;;
44446;SDS011;30152;52.066;5.358;2023-07-02T15:18:56;12.70;;;3.97;;
44446;SDS011;30152;52.066;5.358;2023-07-02T15:21:22;12.07;;;3.83;;
44446;SDS011;30152;52.066;5.358;2023-07-02T15:23:49;8.95;;;4.13;;
44446;SDS011;30152;52.066;5.358;2023-07-02T15:26:15;11.48;;;3.92;;
44446;SDS011;30152;52.066;5.358;2023-07-02T15:28:41;13.88;;;3.95;;
44446;SDS011;30152;52.066;5.358;2023-07-02T15:31:08;10.60;;;3.63;;
44446;SDS011;30152;52.066;5.358;2023-07-02T15:33:37;11.30;;;4.15;;
44446;SDS011;30152;52.066;5.358;2023-07-02T15:36:04;12.27;;;3.83;;
44446;SDS011;30152;52.066;5.358;2023-07-02T15:38:30;12.02;;;4.13;;
44446;SDS011;30152;52.066;5.358;2023-07-02T15:41:09;10.88;;;3.75;;
44446;SDS011;30152;52.066;5.358;2023-07-02T15:43:37;9.45;;;3.53;;
44446;SDS011;30152;52.066;5.358;2023-07-02T15:46:04;12.68;;;3.70;;
44446;SDS011;30152;52.066;5.358;2023-07-02T15:48:29;14.10;;;4.05;;
44446;SDS011;30152;52.066;5.358;2023-07-02T15:50:55;12.57;;;3.88;;
44446;SDS011;30152;52.066;5.358;2023-07-02T15:53:21;13.52;;;4.47;;
44446;SDS011;30152;52.066;5.358;2023-07-02T15:55:53;10.25;;;3.72;;
44446;SDS011;30152;52.066;5.358;2023-07-02T15:58:26;12.02;;;3.75;;
44446;SDS011;30152;52.066;5.358;2023-07-02T16:00:53;14.10;;;3.92;;
44446;SDS011;30152;52.066;5.358;2023-07-02T16:03:19;11.68;;;4.07;;
44446;SDS011;30152;52.066;5.358;2023-07-02T16:05:45;10.73;;;3.88;;
44446;SDS011;30152;52.066;5.358;2023-07-02T16:08:11;13.60;;;3.95;;
44446;SDS011;30152;52.066;5.358;2023-07-02T16:10:40;10.65;;;3.92;;
44446;SDS011;30152;52.066;5.358;2023-07-02T16:13:10;13.07;;;4.10;;
44446;SDS011;30152;52.066;5.358;2023-07-02T16:15:39;15.88;;;3.85;;
44446;SDS011;30152;52.066;5.358;2023-07-02T16:18:06;11.90;;;4.00;;
44446;SDS011;30152;52.066;5.358;2023-07-02T16:20:33;13.48;;;4.43;;
44446;SDS011;30152;52.066;5.358;2023-07-02T16:22:59;15.50;;;4.65;;
44446;SDS011;30152;52.066;5.358;2023-07-02T16:25:25;12.35;;;4.57;;
44446;SDS011;30152;52.066;5.358;2023-07-02T16:27:51;15.15;;;5.13;;
44446;SDS011;30152;52.066;5.358;2023-07-02T16:30:16;13.25;;;4.70;;
44446;SDS011;30152;52.066;5.358;2023-07-02T16:32:42;17.88;;;5.10;;
44446;SDS011;30152;52.066;5.358;2023-07-02T16:35:08;17.65;;;4.53;;
44446;SDS011;30152;52.066;5.358;2023-07-02T16:37:34;12.32;;;4.55;;
44446;SDS011;30152;52.066;5.358;2023-07-02T16:40:00;14.15;;;4.90;;
44446;SDS011;30152;52.066;5.358;2023-07-02T16:42:26;13.27;;;4.65;;
44446;SDS011;30152;52.066;5.358;2023-07-02T16:44:52;13.00;;;4.63;;
44446;SDS011;30152;52.066;5.358;2023-07-02T16:47:18;16.17;;;4.68;;
44446;SDS011;30152;52.066;5.358;2023-07-02T16:49:43;15.80;;;4.57;;
44446;SDS011;30152;52.066;5.358;2023-07-02T16:52:11;11.63;;;4.72;;
44446;SDS011;30152;52.066;5.358;2023-07-02T16:54:37;18.95;;;5.15;;
44446;SDS011;30152;52.066;5.358;2023-07-02T16:57:03;14.43;;;5.13;;
44446;SDS011;30152;52.066;5.358;2023-07-02T16:59:31;15.93;;;4.97;;
44446;SDS011;30152;52.066;5.358;2023-07-02T17:02:02;16.08;;;5.25;;
44446;SDS011;30152;52.066;5.358;2023-07-02T17:04:29;16.77;;;5.47;;
44446;SDS011;30152;52.066;5.358;2023-07-02T17:06:56;15.70;;;5.47;;
44446;SDS011;30152;52.066;5.358;2023-07-02T17:14:29;15.90;;;5.90;;
44446;SDS011;30152;52.066;5.358;2023-07-02T17:16:59;16.27;;;5.15;;
44446;SDS011;30152;52.066;5.358;2023-07-02T17:19:33;19.65;;;5.18;;
44446;SDS011;30152;52.066;5.358;2023-07-02T17:22:04;16.95;;;5.07;;
44446;SDS011;30152;52.066;5.358;2023-07-02T17:24:32;15.13;;;4.93;;
44446;SDS011;30152;52.066;5.358;2023-07-02T17:26:59;15.10;;;4.70;;
44446;SDS011;30152;52.066;5.358;2023-07-02T17:29:25;16.80;;;5.30;;
44446;SDS011;30152;52.066;5.358;2023-07-02T17:31:55;17.48;;;5.43;;
44446;SDS011;30152;52.066;5.358;2023-07-02T17:34:23;16.85;;;5.35;;
44446;SDS011;30152;52.066;5.358;2023-07-02T17:36:57;15.98;;;5.28;;
44446;SDS011;30152;52.066;5.358;2023-07-02T17:39:24;13.68;;;5.10;;
44446;SDS011;30152;52.066;5.358;2023-07-02T17:41:52;16.50;;;4.55;;
44446;SDS011;30152;52.066;5.358;2023-07-02T17:44:20;13.82;;;5.40;;
44446;SDS011;30152;52.066;5.358;2023-07-02T17:46:50;15.52;;;4.70;;
44446;SDS011;30152;52.066;5.358;2023-07-02T17:49:18;12.43;;;4.70;;
44446;SDS011;30152;52.066;5.358;2023-07-02T17:51:44;19.63;;;4.85;;
44446;SDS011;30152;52.066;5.358;2023-07-02T17:54:12;11.20;;;4.45;;
44446;SDS011;30152;52.066;5.358;2023-07-02T17:56:38;14.65;;;4.60;;
44446;SDS011;30152;52.066;5.358;2023-07-02T17:59:04;17.45;;;5.07;;
44446;SDS011;30152;52.066;5.358;2023-07-02T18:01:37;15.30;;;4.97;;
44446;SDS011;30152;52.066;5.358;2023-07-02T18:04:04;15.70;;;4.90;;
44446;SDS011;30152;52.066;5.358;2023-07-02T18:06:30;16.35;;;4.63;;
44446;SDS011;30152;52.066;5.358;2023-07-02T18:08:56;17.38;;;5.13;;
44446;SDS011;30152;52.066;5.358;2023-07-02T18:11:22;12.55;;;4.97;;
44446;SDS011;30152;52.066;5.358;2023-07-02T18:13:48;15.82;;;5.18;;
44446;SDS011;30152;52.066;5.358;2023-07-02T18:16:13;16.05;;;5.10;;
44446;SDS011;30152;52.066;5.358;2023-07-02T18:18:39;20.80;;;5.32;;
44446;SDS011;30152;52.066;5.358;2023-07-02T18:21:04;18.85;;;5.72;;
44446;SDS011;30152;52.066;5.358;2023-07-02T18:23:31;18.75;;;5.10;;
44446;SDS011;30152;52.066;5.358;2023-07-02T18:25:57;16.00;;;5.50;;
44446;SDS011;30152;52.066;5.358;2023-07-02T18:28:28;20.92;;;5.88;;
44446;SDS011;30152;52.066;5.358;2023-07-02T18:30:55;20.33;;;5.18;;
44446;SDS011;30152;52.066;5.358;2023-07-02T18:33:21;17.67;;;5.00;;
44446;SDS011;30152;52.066;5.358;2023-07-02T18:35:47;13.73;;;5.20;;
44446;SDS011;30152;52.066;5.358;2023-07-02T18:38:13;22.08;;;5.97;;
44446;SDS011;30152;52.066;5.358;2023-07-02T18:40:39;17.65;;;5.13;;
44446;SDS011;30152;52.066;5.358;2023-07-02T18:43:05;16.80;;;5.55;;
44446;SDS011;30152;52.066;5.358;2023-07-02T18:45:31;16.63;;;6.03;;
44446;SDS011;30152;52.066;5.358;2023-07-02T18:47:57;19.92;;;5.18;;
44446;SDS011;30152;52.066;5.358;2023-07-02T18:50:23;15.57;;;5.45;;
44446;SDS011;30152;52.066;5.358;2023-07-02T18:52:48;22.95;;;5.82;;
44446;SDS011;30152;52.066;5.358;2023-07-02T18:55:17;16.40;;;4.55;;
44446;SDS011;30152;52.066;5.358;2023-07-02T18:57:42;17.23;;;4.93;;
44446;SDS011;30152;52.066;5.358;2023-07-02T19:00:09;19.92;;;5.47;;
44446;SDS011;30152;52.066;5.358;2023-07-02T19:02:36;17.83;;;6.63;;
44446;SDS011;30152;52.066;5.358;2023-07-02T19:05:03;16.85;;;5.70;;
44446;SDS011;30152;52.066;5.358;2023-07-02T19:07:29;18.40;;;5.40;;
44446;SDS011;30152;52.066;5.358;2023-07-02T19:09:57;17.35;;;5.03;;
44446;SDS011;30152;52.066;5.358;2023-07-02T19:12:26;19.88;;;5.85;;
44446;SDS011;30152;52.066;5.358;2023-07-02T19:14:52;15.05;;;4.70;;
44446;SDS011;30152;52.066;5.358;2023-07-02T19:17:19;18.83;;;5.00;;
44446;SDS011;30152;52.066;5.358;2023-07-02T19:19:46;19.73;;;6.03;;
44446;SDS011;30152;52.066;5.358;2023-07-02T19:22:13;16.92;;;4.90;;
44446;SDS011;30152;52.066;5.358;2023-07-02T19:24:40;17.77;;;5.28;;
44446;SDS011;30152;52.066;5.358;2023-07-02T19:27:08;19.40;;;4.82;;
44446;SDS011;30152;52.066;5.358;2023-07-02T19:29:36;19.67;;;5.55;;
44446;SDS011;30152;52.066;5.358;2023-07-02T19:32:02;16.65;;;5.18;;
44446;SDS011;30152;52.066;5.358;2023-07-02T19:34:29;20.48;;;5.60;;
44446;SDS011;30152;52.066;5.358;2023-07-02T19:36:55;21.35;;;5.05;;
44446;SDS011;30152;52.066;5.358;2023-07-02T19:39:22;20.02;;;5.00;;
44446;SDS011;30152;52.066;5.358;2023-07-02T19:41:47;16.73;;;4.47;;
44446;SDS011;30152;52.066;5.358;2023-07-02T19:44:14;17.13;;;5.38;;
44446;SDS011;30152;52.066;5.358;2023-07-02T19:46:41;17.95;;;5.20;;
44446;SDS011;30152;52.066;5.358;2023-07-02T19:49:08;16.48;;;4.75;;
44446;SDS011;30152;52.066;5.358;2023-07-02T19:51:34;19.45;;;5.10;;
44446;SDS011;30152;52.066;5.358;2023-07-02T19:54:00;20.90;;;5.95;;
44446;SDS011;30152;52.066;5.358;2023-07-02T19:56:28;17.13;;;4.80;;
44446;SDS011;30152;52.066;5.358;2023-07-02T19:58:54;17.95;;;4.95;;
44446;SDS011;30152;52.066;5.358;2023-07-02T20:01:19;16.63;;;4.38;;
44446;SDS011;30152;52.066;5.358;2023-07-02T20:03:46;18.00;;;4.93;;
44446;SDS011;30152;52.066;5.358;2023-07-02T20:06:12;21.17;;;4.82;;
44446;SDS011;30152;52.066;5.358;2023-07-02T20:08:38;15.85;;;4.82;;
44446;SDS011;30152;52.066;5.358;2023-07-02T20:11:04;20.85;;;5.57;;
44446;SDS011;30152;52.066;5.358;2023-07-02T20:13:30;16.95;;;4.80;;
44446;SDS011;30152;52.066;5.358;2023-07-02T20:15:55;20.23;;;5.15;;
44446;SDS011;30152;52.066;5.358;2023-07-02T20:18:24;15.93;;;4.28;;
44446;SDS011;30152;52.066;5.358;2023-07-02T20:20:50;16.45;;;4.50;;
44446;SDS011;30152;52.066;5.358;2023-07-02T20:23:22;23.45;;;4.78;;
44446;SDS011;30152;52.066;5.358;2023-07-02T20:25:49;16.98;;;4.90;;
44446;SDS011;30152;52.066;5.358;2023-07-02T20:28:15;17.10;;;4.38;;
44446;SDS011;30152;52.066;5.358;2023-07-02T20:30:41;20.30;;;4.68;;
44446;SDS011;30152;52.066;5.358;2023-07-02T20:33:09;17.08;;;4.00;;
44446;SDS011;30152;52.066;5.358;2023-07-02T20:35:38;17.08;;;4.30;;
44446;SDS011;30152;52.066;5.358;2023-07-02T20:38:06;13.77;;;3.80;;
44446;SDS011;30152;52.066;5.358;2023-07-02T20:40:35;16.80;;;4.20;;
44446;SDS011;30152;52.066;5.358;2023-07-02T20:43:01;15.98;;;4.05;;
44446;SDS011;30152;52.066;5.358;2023-07-02T20:45:26;15.35;;;4.22;;
44446;SDS011;30152;52.066;5.358;2023-07-02T20:47:55;19.98;;;4.20;;
44446;SDS011;30152;52.066;5.358;2023-07-02T20:50:23;15.60;;;3.83;;
44446;SDS011;30152;52.066;5.358;2023-07-02T20:52:49;21.27;;;5.10;;
44446;SDS011;30152;52.066;5.358;2023-07-02T20:55:15;19.88;;;4.80;;
44446;SDS011;30152;52.066;5.358;2023-07-02T20:57:41;23.77;;;4.63;;
44446;SDS011;30152;52.066;5.358;2023-07-02T21:00:06;21.05;;;4.60;;
44446;SDS011;30152;52.066;5.358;2023-07-02T21:02:37;18.98;;;4.28;;
44446;SDS011;30152;52.066;5.358;2023-07-02T21:05:06;18.48;;;4.50;;
44446;SDS011;30152;52.066;5.358;2023-07-02T21:07:32;25.20;;;4.93;;
44446;SDS011;30152;52.066;5.358;2023-07-02T21:09:58;17.75;;;4.20;;
44446;SDS011;30152;52.066;5.358;2023-07-02T21:12:24;21.20;;;4.97;;
44446;SDS011;30152;52.066;5.358;2023-07-02T21:14:51;22.02;;;4.82;;
44446;SDS011;30152;52.066;5.358;2023-07-02T21:17:17;21.60;;;5.25;;
44446;SDS011;30152;52.066;5.358;2023-07-02T21:19:43;21.58;;;4.60;;
44446;SDS011;30152;52.066;5.358;2023-07-02T21:22:08;20.38;;;4.88;;
44446;SDS011;30152;52.066;5.358;2023-07-02T21:24:34;27.33;;;4.82;;
44446;SDS011;30152;52.066;5.358;2023-07-02T21:27:00;22.35;;;4.55;;
44446;SDS011;30152;52.066;5.358;2023-07-02T21:29:26;21.08;;;4.82;;
44446;SDS011;30152;52.066;5.358;2023-07-02T21:31:52;22.75;;;4.53;;
44446;SDS011;30152;52.066;5.358;2023-07-02T21:34:18;21.13;;;4.15;;
44446;SDS011;30152;52.066;5.358;2023-07-02T21:36:43;21.05;;;4.13;;
44446;SDS011;30152;52.066;5.358;2023-07-02T21:39:09;21.48;;;4.97;;
44446;SDS011;30152;52.066;5.358;2023-07-02T21:41:35;23.48;;;5.22;;
44446;SDS011;30152;52.066;5.358;2023-07-02T21:44:05;23.55;;;4.60;;